Delphos, OH (45833)

9:53 PM EDT on August 23, 2016 (GMT -0400)
2.3 MI. ESE Delphos | | Change Station

Elev 778 ft 40.83 °N, 84.30 °W | Updated 5 minutes ago

Partly Cloudy
Partly Cloudy
68.5 °F
Feels Like 68.5 °F
N
0.0
Wind Variable Wind from ESE

Today
High -- | Low -- °F
--% Chance of Precip.
Yesterday
High -- | Low -- °F
Precip. -- in
Pressure 30.22 in
Visibility 10.0 miles
Clouds Few 5000 ft
Dew Point 63 °F
Humidity 83%
Rainfall 0.00 in
Snow Depth Not available.
6:55 AM 8:22 PM
Waning Gibbous, 62% visible
METAR KAOH 240053Z AUTO 15003KT 10SM FEW050 21/17 A3023 RMK AO2 SLP232 T02060172
Pressure 30.22 in
Visibility 10.0 miles
Clouds Few 5000 ft
Dew Point 63 °F
Humidity 83%
Rainfall 0.00 in
Snow Depth Not available.
6:55 AM 8:22 PM
Waning Gibbous, 62% visible
METAR KAOH 240053Z AUTO 15003KT 10SM FEW050 21/17 A3023 RMK AO2 SLP232 T02060172

10-Day Weather Forecast

Almanac

Astronomy

Aug. 23, 2016 Rise Set
Actual Time
Civil Twilight
Nautical Twilight
Astronomical Twilight
Moon
Length of Visible Light
Length of Day
Tomorrow will be .
, % of the Moon is Illuminated

Today's Extremes

State Highs State Lows

Community

WunderPhotos

Upload Photos

1,934,520 photos uploaded!

WunderBlog® & News

Nearby

Air Quality

  Air Quality AQ Index Pollutant
Not available.

Snow Depth

Station Depth Elevation

Earthquake Activity

City Distance Mag. Time & Date
Minimum magnitude displayed is 2.5.

Coastal Water Temperatures

Place Temperature

Stations

Nearby Weather Stations

Station Location Temp. Windchill Dew Point Humidity Wind Precip. Elev Updated Type
                   

Watches & Warnings

There are currently no watches in effect.